Time;durP1;ratioP1;P1;durP2;ratioP2;P2;SDS_P1;SDS_P2;PMS_P1;PMS_P2;Temp;Humidity;BMP_temperature;BMP_pressure;BME280_temperature;BME280_humidity;BME280_pressure;Samples;Min_cycle;Max_cycle;Signal;HPM_P1;HPM_P2
2021/12/06 00:00:51;;;;;;;4.50;3.60;;;;;;;;;;4929911;29;20189;-77
2021/12/06 00:03:20;;;;;;;6.60;3.40;;;;;;;;;;4934600;29;20185;-77
2021/12/06 00:05:46;;;;;;;3.63;3.33;;;;;;;;;;4936850;28;20201;-77
2021/12/06 00:08:11;;;;;;;7.00;4.23;;;;;;;;;;4932129;29;20277;-77
2021/12/06 00:10:37;;;;;;;4.70;3.33;;;;;;;;;;4936248;28;20186;-77
2021/12/06 00:13:02;;;;;;;5.00;3.80;;;;;;;;;;4936022;29;20198;-77
2021/12/06 00:15:32;;;;;;;5.17;3.40;;;;;;;;;;4935862;29;20213;-77
2021/12/06 00:17:57;;;;;;;4.17;3.67;;;;;;;;;;4935144;29;20177;-77
2021/12/06 00:20:22;;;;;;;5.23;4.00;;;;;;;;;;4943898;28;20231;-77
2021/12/06 00:22:47;;;;;;;5.60;3.90;;;;;;;;;;4932698;29;20200;-77
2021/12/06 00:25:15;;;;;;;5.37;3.73;;;;;;;;;;4950915;29;20196;-77
2021/12/06 00:27:40;;;;;;;5.73;3.57;;;;;;;;;;4938536;29;20265;-77
2021/12/06 00:30:09;;;;;;;5.57;3.87;;;;;;;;;;4931745;29;20312;-77
2021/12/06 00:32:34;;;;;;;5.57;3.80;;;;;;;;;;4930919;29;20212;-77
2021/12/06 00:34:59;;;;;;;6.67;3.70;;;;;;;;;;4933399;29;20177;-77
2021/12/06 00:37:40;;;;;;;4.37;3.80;;;;;;;;;;4934127;29;20193;-77
2021/12/06 00:40:09;;;;;;;6.37;4.57;;;;;;;;;;4959942;28;20189;-77
2021/12/06 00:42:35;;;;;;;7.03;4.30;;;;;;;;;;4931772;29;20293;-77
2021/12/06 00:45:02;;;;;;;4.27;3.87;;;;;;;;;;4927862;29;20189;-77
2021/12/06 00:47:28;;;;;;;5.50;4.40;;;;;;;;;;4927596;29;20178;-77
2021/12/06 00:49:53;;;;;;;4.93;4.20;;;;;;;;;;4932959;29;20188;-77
2021/12/06 00:52:19;;;;;;;4.93;4.07;;;;;;;;;;4936933;29;20186;-77
2021/12/06 00:54:45;;;;;;;5.20;4.07;;;;;;;;;;4930676;29;20178;-77
2021/12/06 00:57:11;;;;;;;7.40;4.83;;;;;;;;;;4929329;29;20251;-77
2021/12/06 00:59:37;;;;;;;5.87;4.43;;;;;;;;;;4928670;29;20182;-77
2021/12/06 01:02:03;;;;;;;6.47;4.10;;;;;;;;;;4929442;29;20242;-77
2021/12/06 01:04:29;;;;;;;7.47;4.77;;;;;;;;;;4927697;29;20186;-77
2021/12/06 01:06:54;;;;;;;6.00;3.53;;;;;;;;;;4935197;29;20625;-77
2021/12/06 01:09:20;;;;;;;8.13;4.97;;;;;;;;;;4938249;29;20259;-77
2021/12/06 01:11:45;;;;;;;4.67;4.17;;;;;;;;;;4925558;29;20190;-77
2021/12/06 01:14:10;;;;;;;4.30;3.90;;;;;;;;;;4930105;29;20178;-77
2021/12/06 01:16:35;;;;;;;6.00;4.30;;;;;;;;;;4928972;29;20181;-77
2021/12/06 01:19:01;;;;;;;7.63;5.17;;;;;;;;;;4929536;29;20190;-77
2021/12/06 01:21:39;;;;;;;8.83;4.77;;;;;;;;;;4929703;29;20186;-77
2021/12/06 01:24:05;;;;;;;6.67;4.70;;;;;;;;;;4935332;29;20208;-77
2021/12/06 01:26:45;;;;;;;8.80;5.17;;;;;;;;;;4933164;28;20198;-77
2021/12/06 01:39:41;;;;;;;5.50;3.50;;;;;;;;;;4931146;29;20188;-77
2021/12/06 01:42:07;;;;;;;5.63;4.10;;;;;;;;;;4937385;28;20240;-77
2021/12/06 01:44:33;;;;;;;5.83;4.17;;;;;;;;;;4935977;29;20479;-77
2021/12/06 01:47:01;;;;;;;6.30;4.67;;;;;;;;;;4933582;28;20204;-77
2021/12/06 01:49:28;;;;;;;6.27;4.00;;;;;;;;;;4934138;29;20237;-77
2021/12/06 01:51:54;;;;;;;4.67;3.77;;;;;;;;;;4934467;28;20178;-77
2021/12/06 01:54:20;;;;;;;5.97;4.77;;;;;;;;;;4939972;28;20255;-77
2021/12/06 01:56:47;;;;;;;6.10;4.03;;;;;;;;;;4935309;28;20241;-77
2021/12/06 01:59:12;;;;;;;6.53;3.63;;;;;;;;;;4953681;28;20198;-77
2021/12/06 02:01:38;;;;;;;6.77;3.83;;;;;;;;;;4936062;28;20182;-77
2021/12/06 02:04:04;;;;;;;4.97;4.00;;;;;;;;;;4931705;28;20236;-77
2021/12/06 02:06:29;;;;;;;4.47;4.07;;;;;;;;;;4931835;29;20272;-77
2021/12/06 02:08:54;;;;;;;6.43;4.00;;;;;;;;;;4948688;28;20188;-77
2021/12/06 02:11:24;;;;;;;6.53;4.20;;;;;;;;;;4937402;29;20235;-77
2021/12/06 02:14:05;;;;;;;5.17;3.60;;;;;;;;;;4932614;28;20189;-77
2021/12/06 02:16:40;;;;;;;7.03;3.87;;;;;;;;;;4950794;28;20279;-77
2021/12/06 02:19:06;;;;;;;6.33;4.00;;;;;;;;;;4931261;28;20189;-77
2021/12/06 02:21:34;;;;;;;4.03;3.00;;;;;;;;;;4949702;28;20186;-77
2021/12/06 02:24:03;;;;;;;6.40;3.90;;;;;;;;;;4926924;29;20189;-77
2021/12/06 02:26:28;;;;;;;5.80;3.20;;;;;;;;;;4931415;29;20212;-77
2021/12/06 02:28:53;;;;;;;4.40;3.63;;;;;;;;;;4933020;29;20181;-77
2021/12/06 02:31:21;;;;;;;8.30;3.83;;;;;;;;;;4936123;29;20177;-77
2021/12/06 02:33:48;;;;;;;5.10;4.50;;;;;;;;;;4933640;29;20226;-77
2021/12/06 02:36:14;;;;;;;5.43;3.70;;;;;;;;;;4927643;29;20262;-77
2021/12/06 02:38:39;;;;;;;4.20;2.37;;;;;;;;;;4934299;29;20210;-77
2021/12/06 02:41:04;;;;;;;7.30;3.93;;;;;;;;;;4926881;29;20228;-77
2021/12/06 02:43:30;;;;;;;3.90;3.50;;;;;;;;;;4928666;29;20233;-77
2021/12/06 02:45:55;;;;;;;5.43;4.37;;;;;;;;;;4929615;29;20289;-77
2021/12/06 02:48:21;;;;;;;6.13;4.47;;;;;;;;;;4929327;29;20186;-77
2021/12/06 02:50:51;;;;;;;7.17;4.50;;;;;;;;;;4930486;29;20193;-77
2021/12/06 02:53:18;;;;;;;5.83;4.73;;;;;;;;;;4929376;29;20186;-78
2021/12/06 02:55:44;;;;;;;7.83;4.40;;;;;;;;;;4926460;29;20193;-77
2021/12/06 02:58:22;;;;;;;8.73;5.73;;;;;;;;;;4930012;29;20194;-77
2021/12/06 03:00:49;;;;;;;5.10;3.97;;;;;;;;;;4932492;29;20315;-77
2021/12/06 03:03:16;;;;;;;6.13;4.73;;;;;;;;;;4929982;29;20186;-77
2021/12/06 03:05:42;;;;;;;9.83;5.73;;;;;;;;;;4931546;29;20285;-77
2021/12/06 03:08:07;;;;;;;6.53;5.20;;;;;;;;;;4930622;29;20262;-77
2021/12/06 03:10:32;;;;;;;14.17;6.23;;;;;;;;;;4932919;29;20218;-77
2021/12/06 03:12:58;;;;;;;8.47;5.67;;;;;;;;;;4925741;29;20206;-77
2021/12/06 03:15:23;;;;;;;13.50;6.30;;;;;;;;;;4932521;29;20190;-77
2021/12/06 03:17:48;;;;;;;8.23;6.60;;;;;;;;;;4930792;29;20190;-77
2021/12/06 03:20:15;;;;;;;7.13;6.27;;;;;;;;;;4929696;29;20210;-77
2021/12/06 03:22:42;;;;;;;7.30;5.40;;;;;;;;;;4928539;29;20183;-77
2021/12/06 03:25:11;;;;;;;9.60;6.30;;;;;;;;;;4929540;29;20190;-77
2021/12/06 03:27:36;;;;;;;6.90;6.10;;;;;;;;;;4943571;28;20198;-77
2021/12/06 03:30:03;;;;;;;9.47;6.40;;;;;;;;;;4934648;29;20449;-77
2021/12/06 03:32:28;;;;;;;9.87;5.97;;;;;;;;;;4922389;29;20208;-77
2021/12/06 03:34:53;;;;;;;6.60;5.70;;;;;;;;;;4933456;29;20182;-77
2021/12/06 03:37:18;;;;;;;11.03;5.67;;;;;;;;;;4933360;29;20182;-77
2021/12/06 03:39:46;;;;;;;9.97;5.70;;;;;;;;;;4933142;29;20185;-77
2021/12/06 03:42:13;;;;;;;8.10;5.00;;;;;;;;;;4932144;29;20238;-77
2021/12/06 03:44:38;;;;;;;10.37;5.93;;;;;;;;;;4936140;29;20209;-78
2021/12/06 03:47:10;;;;;;;9.07;5.77;;;;;;;;;;4930225;29;20217;-76
2021/12/06 03:49:36;;;;;;;7.97;4.97;;;;;;;;;;4926621;29;20186;-77
2021/12/06 03:52:02;;;;;;;7.03;5.20;;;;;;;;;;4930855;29;20268;-76
2021/12/06 03:54:29;;;;;;;7.10;5.13;;;;;;;;;;4931298;29;20274;-77
2021/12/06 03:56:56;;;;;;;8.00;4.93;;;;;;;;;;4926962;29;20855;-77
2021/12/06 03:59:21;;;;;;;7.37;5.07;;;;;;;;;;4938052;29;20186;-77
2021/12/06 04:01:47;;;;;;;6.07;4.70;;;;;;;;;;4937015;29;20193;-76
2021/12/06 04:04:13;;;;;;;6.77;4.23;;;;;;;;;;4928910;29;20190;-77
2021/12/06 04:06:39;;;;;;;4.87;4.00;;;;;;;;;;4932892;29;20222;-77
2021/12/06 04:09:05;;;;;;;8.60;4.83;;;;;;;;;;4935790;29;20271;-76
2021/12/06 04:11:31;;;;;;;6.03;3.90;;;;;;;;;;4932871;29;20179;-77
2021/12/06 04:13:56;;;;;;;7.80;4.17;;;;;;;;;;4928611;29;20209;-76
2021/12/06 04:16:21;;;;;;;5.67;4.17;;;;;;;;;;4927947;29;20189;-76
2021/12/06 04:18:47;;;;;;;5.90;4.37;;;;;;;;;;4936174;29;20198;-77
2021/12/06 04:21:12;;;;;;;5.43;3.67;;;;;;;;;;4937505;29;20191;-77
2021/12/06 04:23:38;;;;;;;5.80;3.97;;;;;;;;;;4932617;29;20217;-77
2021/12/06 04:26:04;;;;;;;4.90;3.73;;;;;;;;;;4933237;29;20321;-77
2021/12/06 04:28:32;;;;;;;4.23;3.83;;;;;;;;;;4937334;29;20215;-76
2021/12/06 04:30:57;;;;;;;4.97;4.17;;;;;;;;;;4931226;29;20210;-77
2021/12/06 04:33:23;;;;;;;6.80;4.70;;;;;;;;;;4936275;29;20280;-76
2021/12/06 04:35:48;;;;;;;7.77;5.33;;;;;;;;;;4934008;29;20281;-77
2021/12/06 04:38:13;;;;;;;6.17;4.57;;;;;;;;;;4925651;29;20185;-77
2021/12/06 04:40:39;;;;;;;5.20;4.63;;;;;;;;;;4934133;29;20347;-76
2021/12/06 04:43:04;;;;;;;5.13;4.47;;;;;;;;;;4944471;28;20229;-76
2021/12/06 04:45:30;;;;;;;9.70;5.23;;;;;;;;;;4939205;29;20209;-77
2021/12/06 04:47:55;;;;;;;8.80;5.43;;;;;;;;;;4952139;28;20181;-77
2021/12/06 04:50:24;;;;;;;6.13;5.13;;;;;;;;;;4948929;28;20224;-77
2021/12/06 04:52:50;;;;;;;7.37;5.80;;;;;;;;;;4935896;29;20177;-77
2021/12/06 04:55:22;;;;;;;7.67;5.37;;;;;;;;;;4944170;29;20182;-77
2021/12/06 04:57:47;;;;;;;8.60;4.97;;;;;;;;;;4938115;29;20178;-77
2021/12/06 05:00:16;;;;;;;9.30;6.07;;;;;;;;;;4938551;29;20172;-76
2021/12/06 05:02:41;;;;;;;7.47;5.57;;;;;;;;;;4953440;29;20177;-77
2021/12/06 05:05:12;;;;;;;7.10;5.10;;;;;;;;;;4941333;28;20192;-77
2021/12/06 05:07:41;;;;;;;6.23;4.90;;;;;;;;;;4942337;28;20185;-77
2021/12/06 05:10:07;;;;;;;8.23;4.20;;;;;;;;;;4929545;28;20181;-76
2021/12/06 05:12:33;;;;;;;2.77;2.17;;;;;;;;;;4929256;29;20272;-77
2021/12/06 05:14:58;;;;;;;5.87;4.23;;;;;;;;;;4936026;28;20268;-76
2021/12/06 05:17:23;;;;;;;9.47;4.73;;;;;;;;;;4935708;29;20316;-77
2021/12/06 05:19:49;;;;;;;8.43;5.77;;;;;;;;;;4933353;29;20169;-76
2021/12/06 05:22:14;;;;;;;3.67;3.37;;;;;;;;;;4929013;29;20182;-77
2021/12/06 05:24:39;;;;;;;7.27;5.10;;;;;;;;;;4937327;28;20177;-77
2021/12/06 05:27:05;;;;;;;5.93;4.77;;;;;;;;;;4931670;29;20202;-76
2021/12/06 05:29:31;;;;;;;8.87;4.43;;;;;;;;;;4933191;29;20174;-77
2021/12/06 05:31:58;;;;;;;6.30;4.47;;;;;;;;;;4934904;29;20200;-77
2021/12/06 05:34:31;;;;;;;7.33;5.10;;;;;;;;;;4930646;29;20237;-77
2021/12/06 05:36:57;;;;;;;6.00;4.93;;;;;;;;;;4934487;28;20182;-77
2021/12/06 05:39:22;;;;;;;7.47;5.57;;;;;;;;;;4934679;29;20182;-77
2021/12/06 05:41:47;;;;;;;7.50;5.37;;;;;;;;;;4932637;29;20202;-76
2021/12/06 05:44:12;;;;;;;5.33;4.80;;;;;;;;;;4935331;29;20185;-76
2021/12/06 05:46:38;;;;;;;7.10;5.63;;;;;;;;;;4935699;28;20201;-76
2021/12/06 05:49:03;;;;;;;6.93;5.37;;;;;;;;;;4950434;28;20217;-77
2021/12/06 05:51:28;;;;;;;8.07;6.20;;;;;;;;;;4931389;29;20189;-77
2021/12/06 05:53:54;;;;;;;5.63;5.00;;;;;;;;;;4956787;28;20185;-77
2021/12/06 05:56:19;;;;;;;4.80;4.00;;;;;;;;;;4929258;29;20193;-78
2021/12/06 05:58:44;;;;;;;5.63;4.70;;;;;;;;;;4935039;29;20221;-79
2021/12/06 06:01:10;;;;;;;5.23;3.70;;;;;;;;;;4957173;28;20177;-79
2021/12/06 06:03:35;;;;;;;8.53;5.27;;;;;;;;;;4934701;28;20193;-78
2021/12/06 06:06:00;;;;;;;9.10;6.20;;;;;;;;;;4938498;28;20196;-78
2021/12/06 06:08:25;;;;;;;8.30;6.50;;;;;;;;;;4940089;29;20236;-78
2021/12/06 06:10:51;;;;;;;11.20;6.63;;;;;;;;;;4937098;28;20260;-78
2021/12/06 06:13:16;;;;;;;9.37;5.83;;;;;;;;;;4932378;29;20181;-78
2021/12/06 06:15:41;;;;;;;6.07;4.77;;;;;;;;;;4933266;28;20193;-78
2021/12/06 06:18:07;;;;;;;6.07;4.87;;;;;;;;;;4930823;29;20209;-78
2021/12/06 06:20:38;;;;;;;7.83;5.50;;;;;;;;;;4942310;29;20276;-78
2021/12/06 06:23:04;;;;;;;9.70;5.67;;;;;;;;;;4949690;29;20187;-78
2021/12/06 06:25:30;;;;;;;5.80;4.43;;;;;;;;;;4953326;28;20177;-78
2021/12/06 06:27:55;;;;;;;7.97;5.50;;;;;;;;;;4935099;29;20254;-78
2021/12/06 06:30:20;;;;;;;9.67;5.73;;;;;;;;;;4952203;29;20185;-78
2021/12/06 06:32:46;;;;;;;6.57;4.90;;;;;;;;;;4934148;28;20173;-78
2021/12/06 06:35:12;;;;;;;6.90;5.47;;;;;;;;;;4935495;28;20184;-78
2021/12/06 06:37:37;;;;;;;7.03;5.03;;;;;;;;;;4934412;28;20182;-79
2021/12/06 06:40:03;;;;;;;9.67;6.30;;;;;;;;;;4956395;28;20303;-77
2021/12/06 06:42:28;;;;;;;6.30;4.33;;;;;;;;;;4934587;29;20259;-79
2021/12/06 06:44:54;;;;;;;5.37;3.50;;;;;;;;;;4948107;28;20194;-79
2021/12/06 06:47:20;;;;;;;6.27;4.53;;;;;;;;;;4929961;29;20221;-79
2021/12/06 06:49:45;;;;;;;7.10;4.00;;;;;;;;;;4931379;29;20273;-78
2021/12/06 06:52:11;;;;;;;7.30;5.70;;;;;;;;;;4933667;29;20177;-78
2021/12/06 06:54:36;;;;;;;8.63;5.83;;;;;;;;;;4935517;29;20317;-78
2021/12/06 06:57:01;;;;;;;7.43;6.23;;;;;;;;;;4934120;29;20205;-78
2021/12/06 06:59:27;;;;;;;6.57;5.47;;;;;;;;;;4932736;29;20265;-78
2021/12/06 07:01:53;;;;;;;7.80;5.50;;;;;;;;;;4934069;29;20209;-78
2021/12/06 07:04:18;;;;;;;6.43;5.20;;;;;;;;;;4927482;29;20186;-78
2021/12/06 07:06:44;;;;;;;8.60;4.60;;;;;;;;;;4931690;29;20229;-78
2021/12/06 07:09:09;;;;;;;8.87;5.23;;;;;;;;;;4927076;29;20214;-78
2021/12/06 07:11:35;;;;;;;6.63;5.13;;;;;;;;;;4926846;29;20182;-79
2021/12/06 07:14:00;;;;;;;5.93;4.80;;;;;;;;;;4934492;29;20232;-78
2021/12/06 07:16:26;;;;;;;7.23;5.43;;;;;;;;;;4941652;29;20181;-78
2021/12/06 07:18:51;;;;;;;10.50;6.47;;;;;;;;;;4934842;29;20246;-78
2021/12/06 07:21:17;;;;;;;10.77;6.07;;;;;;;;;;4933939;29;20186;-78
2021/12/06 07:23:44;;;;;;;9.07;6.57;;;;;;;;;;4935493;29;20414;-78
2021/12/06 07:26:10;;;;;;;6.63;4.97;;;;;;;;;;4935847;29;20205;-78
2021/12/06 07:28:35;;;;;;;6.97;4.43;;;;;;;;;;4942322;28;20179;-79
2021/12/06 07:31:05;;;;;;;9.03;6.77;;;;;;;;;;4938880;29;20185;-78
2021/12/06 07:33:31;;;;;;;10.07;6.97;;;;;;;;;;4933887;29;20237;-78
2021/12/06 07:35:56;;;;;;;8.43;4.90;;;;;;;;;;4935375;29;20186;-78
2021/12/06 07:38:22;;;;;;;15.43;9.37;;;;;;;;;;4936324;29;20235;-78
2021/12/06 07:40:50;;;;;;;7.13;4.30;;;;;;;;;;4937516;29;20310;-78
2021/12/06 07:43:15;;;;;;;12.03;6.90;;;;;;;;;;4935972;29;20229;-78
2021/12/06 07:45:41;;;;;;;9.63;6.10;;;;;;;;;;4934244;29;20305;-78
2021/12/06 07:48:06;;;;;;;6.90;5.07;;;;;;;;;;4938057;29;20185;-78
2021/12/06 07:50:32;;;;;;;12.33;6.63;;;;;;;;;;4936888;29;20190;-78
2021/12/06 07:52:57;;;;;;;11.90;7.27;;;;;;;;;;4934637;29;20249;-78
2021/12/06 07:55:24;;;;;;;11.63;6.87;;;;;;;;;;4927677;29;20175;-78
2021/12/06 07:57:49;;;;;;;12.47;7.40;;;;;;;;;;4937975;29;20313;-79
2021/12/06 08:00:18;;;;;;;9.27;6.60;;;;;;;;;;4933955;29;20273;-78
2021/12/06 08:02:43;;;;;;;12.27;6.67;;;;;;;;;;4933973;29;20257;-78
2021/12/06 08:07:53;;;;;;;11.00;6.40;;;;;;;;;;4940417;29;20192;-78
2021/12/06 08:10:18;;;;;;;6.40;3.70;;;;;;;;;;4942232;29;20181;-78
2021/12/06 08:12:43;;;;;;;7.93;4.60;;;;;;;;;;4938271;29;20196;-78
2021/12/06 08:15:09;;;;;;;9.37;6.17;;;;;;;;;;4934814;29;20178;-78
2021/12/06 08:17:34;;;;;;;9.60;6.33;;;;;;;;;;4930859;29;20197;-78
2021/12/06 08:19:59;;;;;;;8.90;6.20;;;;;;;;;;4926178;29;20214;-78
2021/12/06 08:22:25;;;;;;;8.73;5.97;;;;;;;;;;4935985;29;20190;-78
2021/12/06 08:24:50;;;;;;;10.57;6.83;;;;;;;;;;4939689;29;20273;-78
2021/12/06 08:27:15;;;;;;;10.13;6.53;;;;;;;;;;4940592;29;20206;-78
2021/12/06 08:29:42;;;;;;;9.43;6.53;;;;;;;;;;4934815;29;20174;-78
2021/12/06 08:32:07;;;;;;;11.57;7.93;;;;;;;;;;4932291;29;20178;-78
2021/12/06 08:34:33;;;;;;;9.50;6.50;;;;;;;;;;4935833;29;20182;-78
2021/12/06 08:36:58;;;;;;;9.80;6.40;;;;;;;;;;4941586;29;20201;-79
2021/12/06 08:39:23;;;;;;;8.07;5.80;;;;;;;;;;4931907;29;20211;-78
2021/12/06 08:41:48;;;;;;;8.20;5.40;;;;;;;;;;4936338;29;20213;-78
2021/12/06 08:44:14;;;;;;;7.57;4.93;;;;;;;;;;4934455;29;20189;-79
2021/12/06 08:46:39;;;;;;;9.27;5.60;;;;;;;;;;4933924;28;20216;-78
2021/12/06 08:49:06;;;;;;;8.47;5.57;;;;;;;;;;4943662;29;20178;-78
2021/12/06 08:51:33;;;;;;;5.73;4.97;;;;;;;;;;4951633;29;20212;-78
2021/12/06 08:54:00;;;;;;;6.80;5.03;;;;;;;;;;4937693;28;20185;-78
2021/12/06 08:56:25;;;;;;;8.37;5.03;;;;;;;;;;4949331;28;20182;-78
2021/12/06 08:58:51;;;;;;;5.97;4.37;;;;;;;;;;4957614;28;20355;-78
2021/12/06 09:01:17;;;;;;;7.30;4.63;;;;;;;;;;4935905;29;20217;-78
2021/12/06 09:03:43;;;;;;;5.47;4.63;;;;;;;;;;4951299;28;20208;-78
2021/12/06 09:06:09;;;;;;;8.07;5.53;;;;;;;;;;4938000;29;20252;-78
2021/12/06 09:08:37;;;;;;;10.13;6.40;;;;;;;;;;4944016;28;20185;-78
2021/12/06 09:11:04;;;;;;;8.77;5.50;;;;;;;;;;4928230;29;20181;-78
2021/12/06 09:13:29;;;;;;;7.80;5.50;;;;;;;;;;4930731;29;20189;-77
2021/12/06 09:15:56;;;;;;;6.37;5.40;;;;;;;;;;4939750;28;20180;-78
2021/12/06 09:18:22;;;;;;;7.77;4.33;;;;;;;;;;4939413;29;20182;-78
2021/12/06 09:20:48;;;;;;;7.40;4.57;;;;;;;;;;4951813;28;20272;-78
2021/12/06 09:23:14;;;;;;;6.27;4.23;;;;;;;;;;4941855;28;20236;-78
2021/12/06 09:25:39;;;;;;;5.83;4.27;;;;;;;;;;4935694;28;20204;-78
2021/12/06 09:28:05;;;;;;;6.70;5.20;;;;;;;;;;4935373;28;20182;-77
2021/12/06 09:30:31;;;;;;;7.33;4.80;;;;;;;;;;4936067;29;20179;-78
2021/12/06 09:32:57;;;;;;;7.37;6.60;;;;;;;;;;4937046;28;20176;-78
2021/12/06 09:35:26;;;;;;;6.53;5.50;;;;;;;;;;4935851;29;20181;-79
2021/12/06 09:37:53;;;;;;;7.43;5.57;;;;;;;;;;4936544;28;20239;-79
2021/12/06 09:40:18;;;;;;;6.40;4.97;;;;;;;;;;4939559;29;20241;-78
2021/12/06 09:42:44;;;;;;;8.60;6.23;;;;;;;;;;4939070;29;20328;-79
2021/12/06 09:45:12;;;;;;;10.63;6.23;;;;;;;;;;4932538;29;20511;-78
2021/12/06 09:47:37;;;;;;;7.93;6.40;;;;;;;;;;4934853;29;20218;-78
2021/12/06 09:50:03;;;;;;;7.83;5.73;;;;;;;;;;4943201;29;20185;-79
2021/12/06 09:52:28;;;;;;;7.33;4.60;;;;;;;;;;4933415;29;20208;-78
2021/12/06 09:54:55;;;;;;;7.40;5.40;;;;;;;;;;4943443;29;20190;-78
2021/12/06 09:57:20;;;;;;;9.17;6.20;;;;;;;;;;4937954;28;20189;-78
2021/12/06 09:59:46;;;;;;;7.43;4.40;;;;;;;;;;4942526;29;20192;-78
2021/12/06 10:02:14;;;;;;;6.40;4.83;;;;;;;;;;4937224;29;20192;-78
2021/12/06 10:04:44;;;;;;;8.13;5.80;;;;;;;;;;4937012;29;20189;-78
2021/12/06 10:07:09;;;;;;;7.90;4.87;;;;;;;;;;4937477;29;20213;-78
2021/12/06 10:09:36;;;;;;;7.67;4.83;;;;;;;;;;4930365;29;20542;-78
2021/12/06 10:12:02;;;;;;;8.20;7.33;;;;;;;;;;4938375;29;20205;-78
2021/12/06 10:14:27;;;;;;;7.33;4.33;;;;;;;;;;4928942;29;20407;-78
2021/12/06 10:16:52;;;;;;;4.57;4.10;;;;;;;;;;4933918;29;20226;-78
2021/12/06 10:19:18;;;;;;;5.77;4.40;;;;;;;;;;4929518;29;20190;-78
2021/12/06 10:21:44;;;;;;;6.23;4.33;;;;;;;;;;4940373;29;20173;-78
2021/12/06 10:24:14;;;;;;;4.73;4.00;;;;;;;;;;4932667;29;20194;-78
2021/12/06 10:26:40;;;;;;;4.10;3.30;;;;;;;;;;4943069;29;20244;-78
2021/12/06 10:29:07;;;;;;;6.07;3.97;;;;;;;;;;4928601;29;20226;-78
2021/12/06 10:31:33;;;;;;;6.13;3.90;;;;;;;;;;4936317;29;20237;-78
2021/12/06 10:33:58;;;;;;;4.30;3.33;;;;;;;;;;4931986;29;20189;-78
2021/12/06 10:36:26;;;;;;;3.83;3.30;;;;;;;;;;4933214;29;20225;-78
2021/12/06 10:38:53;;;;;;;4.63;3.87;;;;;;;;;;4936981;29;20186;-78
2021/12/06 10:41:20;;;;;;;4.50;3.53;;;;;;;;;;4936158;29;20232;-78
2021/12/06 10:44:04;;;;;;;4.83;4.37;;;;;;;;;;4931412;29;20302;-78
2021/12/06 10:46:30;;;;;;;3.70;3.30;;;;;;;;;;4928151;29;20209;-78
2021/12/06 10:48:56;;;;;;;3.10;2.80;;;;;;;;;;4933976;29;20193;-78
2021/12/06 10:51:23;;;;;;;3.60;3.10;;;;;;;;;;4942593;29;20190;-78
2021/12/06 10:54:05;;;;;;;3.70;3.40;;;;;;;;;;4935484;29;20201;-78
2021/12/06 10:56:38;;;;;;;3.70;3.20;;;;;;;;;;4935787;29;20194;-78
2021/12/06 10:59:07;;;;;;;2.97;2.67;;;;;;;;;;4948567;29;20246;-78
2021/12/06 11:01:32;;;;;;;2.83;2.53;;;;;;;;;;4938895;29;20280;-78
2021/12/06 11:03:59;;;;;;;3.97;3.00;;;;;;;;;;4935204;29;20246;-78
2021/12/06 11:06:27;;;;;;;4.87;3.83;;;;;;;;;;4941057;29;20211;-78
2021/12/06 11:08:56;;;;;;;3.10;2.73;;;;;;;;;;4938262;29;20178;-78
2021/12/06 11:11:27;;;;;;;3.60;3.03;;;;;;;;;;4939038;29;20184;-78
2021/12/06 11:14:00;;;;;;;3.60;2.60;;;;;;;;;;4935051;29;20269;-77
2021/12/06 11:16:29;;;;;;;4.47;3.30;;;;;;;;;;4935910;29;20190;-78
2021/12/06 11:18:54;;;;;;;3.33;2.53;;;;;;;;;;4932705;29;20268;-78
2021/12/06 11:21:21;;;;;;;3.93;3.50;;;;;;;;;;4936148;29;20245;-78
2021/12/06 11:23:56;;;;;;;3.53;2.80;;;;;;;;;;4933743;29;20236;-77
2021/12/06 11:26:21;;;;;;;4.00;3.13;;;;;;;;;;4938103;29;20197;-77
2021/12/06 11:28:46;;;;;;;3.87;2.97;;;;;;;;;;4937936;29;20193;-77
2021/12/06 11:31:14;;;;;;;9.43;6.03;;;;;;;;;;4940755;29;20186;-78
2021/12/06 11:33:39;;;;;;;2.33;2.10;;;;;;;;;;4939248;29;20186;-77
2021/12/06 11:36:17;;;;;;;5.30;4.30;;;;;;;;;;4929629;29;20197;-77
2021/12/06 11:38:46;;;;;;;2.40;2.20;;;;;;;;;;4947899;29;20183;-77
2021/12/06 11:41:12;;;;;;;2.10;1.90;;;;;;;;;;4934972;28;20197;-77
2021/12/06 11:43:38;;;;;;;8.97;6.53;;;;;;;;;;4943351;29;20257;-77
2021/12/06 11:46:04;;;;;;;7.87;6.17;;;;;;;;;;4934173;29;20201;-77
2021/12/06 11:48:31;;;;;;;2.40;2.20;;;;;;;;;;4933779;29;20182;-77
2021/12/06 11:50:59;;;;;;;3.23;2.00;;;;;;;;;;4935989;29;20185;-77
2021/12/06 11:53:26;;;;;;;1.70;1.60;;;;;;;;;;4934759;29;20259;-77
2021/12/06 11:56:02;;;;;;;2.17;2.00;;;;;;;;;;4947570;29;20174;-77
2021/12/06 11:58:31;;;;;;;2.80;1.83;;;;;;;;;;4943803;29;20263;-77
2021/12/06 12:01:15;;;;;;;1.97;1.83;;;;;;;;;;4935603;29;20186;-77
2021/12/06 12:03:41;;;;;;;2.03;1.83;;;;;;;;;;4935145;29;20177;-77
2021/12/06 12:06:25;;;;;;;2.60;2.10;;;;;;;;;;4933225;29;20323;-77
2021/12/06 12:09:06;;;;;;;1.90;1.80;;;;;;;;;;4954759;28;20178;-77
2021/12/06 12:11:31;;;;;;;2.53;1.73;;;;;;;;;;4931402;29;20277;-77
2021/12/06 12:13:58;;;;;;;2.00;1.80;;;;;;;;;;4935197;29;20305;-77
2021/12/06 12:16:23;;;;;;;2.17;1.97;;;;;;;;;;4938474;29;20205;-77
2021/12/06 12:18:49;;;;;;;1.80;1.67;;;;;;;;;;4943416;29;20213;-77
2021/12/06 12:21:15;;;;;;;2.30;1.80;;;;;;;;;;4933175;29;20347;-77
2021/12/06 12:23:42;;;;;;;1.83;1.53;;;;;;;;;;4933933;29;20186;-77
2021/12/06 12:26:12;;;;;;;2.83;2.10;;;;;;;;;;4934871;29;20198;-77
2021/12/06 12:28:49;;;;;;;3.00;2.60;;;;;;;;;;4937672;29;20180;-77
2021/12/06 12:31:15;;;;;;;5.80;3.80;;;;;;;;;;4925311;29;20241;-77
2021/12/06 12:33:40;;;;;;;2.27;1.80;;;;;;;;;;4935302;29;20257;-77
2021/12/06 12:36:07;;;;;;;2.10;1.90;;;;;;;;;;4933531;29;20188;-77
2021/12/06 12:38:34;;;;;;;2.30;2.00;;;;;;;;;;4934737;28;20269;-77
2021/12/06 12:41:09;;;;;;;1.93;1.73;;;;;;;;;;4932942;29;20201;-77
2021/12/06 12:43:36;;;;;;;2.27;1.70;;;;;;;;;;4934169;29;20273;-77
2021/12/06 12:46:06;;;;;;;2.20;1.90;;;;;;;;;;4945085;28;20214;-77
2021/12/06 12:48:43;;;;;;;2.87;1.77;;;;;;;;;;4939382;29;20214;-77
2021/12/06 12:51:10;;;;;;;3.43;1.80;;;;;;;;;;4934258;29;20178;-77
2021/12/06 12:53:54;;;;;;;1.63;1.53;;;;;;;;;;4936248;29;20183;-77
2021/12/06 12:56:31;;;;;;;1.83;1.60;;;;;;;;;;4934415;29;20187;-77
2021/12/06 12:58:58;;;;;;;1.47;1.37;;;;;;;;;;4929966;29;20205;-77
2021/12/06 13:01:24;;;;;;;2.07;1.90;;;;;;;;;;4936642;29;20182;-77
2021/12/06 13:03:54;;;;;;;10.27;3.00;;;;;;;;;;4939913;29;20445;-77
2021/12/06 13:06:30;;;;;;;5.20;1.80;;;;;;;;;;4939972;29;20257;-77
2021/12/06 13:08:57;;;;;;;1.63;1.53;;;;;;;;;;4940443;29;20188;-77
2021/12/06 13:11:28;;;;;;;2.50;1.37;;;;;;;;;;4940504;28;20182;-77
2021/12/06 13:13:54;;;;;;;1.13;1.10;;;;;;;;;;4932743;29;20524;-77
2021/12/06 13:19:11;;;;;;;2.87;2.23;;;;;;;;;;4935330;29;20509;-77
2021/12/06 13:21:51;;;;;;;2.97;2.13;;;;;;;;;;4934525;29;20193;-77
2021/12/06 13:24:16;;;;;;;4.10;2.30;;;;;;;;;;4928674;29;20281;-77
2021/12/06 13:26:47;;;;;;;2.03;1.83;;;;;;;;;;4933649;29;20288;-77
2021/12/06 13:29:14;;;;;;;1.90;1.70;;;;;;;;;;4932690;29;20197;-77
2021/12/06 13:31:39;;;;;;;1.87;1.77;;;;;;;;;;4933319;29;20170;-77
2021/12/06 13:34:21;;;;;;;2.13;1.53;;;;;;;;;;4933235;29;20189;-77
2021/12/06 13:36:50;;;;;;;1.33;1.23;;;;;;;;;;4934587;29;20189;-77
2021/12/06 13:39:31;;;;;;;1.43;1.33;;;;;;;;;;4938849;29;20214;-77
2021/12/06 13:42:01;;;;;;;3.60;1.80;;;;;;;;;;4937979;28;20334;-77
2021/12/06 13:44:45;;;;;;;2.70;2.07;;;;;;;;;;4932043;29;20343;-77
2021/12/06 13:47:13;;;;;;;2.77;1.23;;;;;;;;;;4950931;28;20289;-77
2021/12/06 13:50:10;;;;;;;2.73;1.73;;;;;;;;;;4928086;28;20185;-77
2021/12/06 13:52:47;;;;;;;1.67;1.57;;;;;;;;;;4911215;28;20281;-77
2021/12/06 13:55:29;;;;;;;2.50;2.30;;;;;;;;;;4933792;29;20219;-77
2021/12/06 13:57:59;;;;;;;3.67;2.67;;;;;;;;;;4952994;28;20184;-77
2021/12/06 14:00:27;;;;;;;5.87;3.13;;;;;;;;;;4957558;28;20188;-77
2021/12/06 14:03:00;;;;;;;7.70;1.70;;;;;;;;;;4937732;29;20178;-77
2021/12/06 14:05:26;;;;;;;3.00;2.43;;;;;;;;;;4940813;29;20185;-77
2021/12/06 14:07:51;;;;;;;6.73;4.07;;;;;;;;;;4944578;28;20262;-77
2021/12/06 14:10:17;;;;;;;7.10;4.97;;;;;;;;;;4923602;29;20178;-77
2021/12/06 14:12:44;;;;;;;3.00;2.10;;;;;;;;;;4946722;28;20181;-77
2021/12/06 14:15:36;;;;;;;5.83;3.93;;;;;;;;;;4949247;28;20394;-77
2021/12/06 14:18:01;;;;;;;2.63;1.30;;;;;;;;;;4937510;28;20168;-76
2021/12/06 14:20:27;;;;;;;9.40;5.17;;;;;;;;;;4942700;29;20174;-77
2021/12/06 14:22:52;;;;;;;7.57;4.47;;;;;;;;;;4934278;28;20261;-77
2021/12/06 14:25:19;;;;;;;4.20;3.00;;;;;;;;;;4953705;28;20178;-77
2021/12/06 14:27:45;;;;;;;4.00;2.93;;;;;;;;;;4952322;28;20205;-77
2021/12/06 14:30:14;;;;;;;2.07;1.33;;;;;;;;;;4937257;29;20185;-77
2021/12/06 14:32:44;;;;;;;1.23;1.13;;;;;;;;;;4935158;28;20178;-77
2021/12/06 14:35:09;;;;;;;22.13;10.20;;;;;;;;;;4937482;29;20364;-77
2021/12/06 14:37:34;;;;;;;1.73;1.50;;;;;;;;;;4935970;29;20188;-77
2021/12/06 14:40:00;;;;;;;1.77;1.27;;;;;;;;;;4937235;29;20217;-77
2021/12/06 14:42:26;;;;;;;3.33;2.20;;;;;;;;;;4932274;29;20285;-77
2021/12/06 14:44:54;;;;;;;1.50;1.37;;;;;;;;;;4931383;29;20187;-77
2021/12/06 14:47:26;;;;;;;1.30;1.20;;;;;;;;;;4934811;29;20281;-77
2021/12/06 14:49:53;;;;;;;3.03;1.73;;;;;;;;;;4927411;29;20229;-77
2021/12/06 14:52:23;;;;;;;1.53;1.43;;;;;;;;;;4931128;29;20237;-77
2021/12/06 14:55:02;;;;;;;1.63;1.20;;;;;;;;;;4934165;29;20185;-77
2021/12/06 14:57:32;;;;;;;1.90;1.60;;;;;;;;;;4932099;29;20211;-77
2021/12/06 15:00:01;;;;;;;1.40;1.30;;;;;;;;;;4932682;29;20182;-77